createdAt,value
2022-11-12T00:01:12.651Z,11.68
2022-11-12T00:03:41.861Z,11.45
2022-11-12T00:06:11.125Z,11.48
2022-11-12T00:08:38.144Z,11.70
2022-11-12T00:11:05.097Z,11.73
2022-11-12T00:13:31.936Z,12.15
2022-11-12T00:15:58.634Z,12.50
2022-11-12T00:18:25.504Z,10.25
2022-11-12T00:20:52.405Z,9.65
2022-11-12T00:23:19.101Z,10.38
2022-11-12T00:25:45.759Z,10.98
2022-11-12T00:28:12.379Z,10.43
2022-11-12T00:30:40.550Z,12.02
2022-11-12T00:33:07.230Z,11.20
2022-11-12T00:35:34.265Z,11.70
2022-11-12T00:38:01.301Z,10.77
2022-11-12T00:40:28.595Z,10.23
2022-11-12T00:42:55.407Z,10.27
2022-11-12T00:45:25.017Z,10.23
2022-11-12T00:47:56.054Z,9.55
2022-11-12T00:50:23.438Z,9.45
2022-11-12T00:52:52.852Z,10.48
2022-11-12T00:55:19.450Z,9.70
2022-11-12T00:57:46.082Z,9.40
2022-11-12T01:00:18.559Z,9.93
2022-11-12T01:02:50.789Z,9.50
2022-11-12T01:05:18.817Z,10.33
2022-11-12T01:07:45.667Z,9.35
2022-11-12T01:10:14.614Z,10.13
2022-11-12T01:12:41.236Z,9.77
2022-11-12T01:15:08.641Z,8.70
2022-11-12T01:17:35.435Z,8.13
2022-11-12T01:20:02.063Z,10.13
2022-11-12T01:22:31.213Z,9.05
2022-11-12T01:25:00.084Z,8.75
2022-11-12T01:27:26.762Z,8.88
2022-11-12T01:29:53.406Z,9.43
2022-11-12T01:32:20.194Z,8.95
2022-11-12T01:34:46.809Z,8.98
2022-11-12T01:37:13.545Z,8.75
2022-11-12T01:39:40.138Z,9.35
2022-11-12T01:42:06.825Z,9.52
2022-11-12T01:44:41.537Z,9.70
2022-11-12T01:47:17.541Z,9.23
2022-11-12T01:49:57.274Z,9.40
2022-11-12T01:52:39.068Z,9.45
2022-11-12T01:55:18.380Z,9.25
2022-11-12T01:57:50.720Z,9.82
2022-11-12T02:00:17.771Z,10.32
2022-11-12T02:02:47.262Z,9.38
2022-11-12T02:05:18.775Z,9.35
2022-11-12T02:07:47.637Z,10.20
2022-11-12T02:10:14.771Z,11.00
2022-11-12T02:13:00.904Z,11.30
2022-11-12T02:15:28.030Z,11.85
2022-11-12T02:17:54.713Z,10.93
2022-11-12T02:20:21.349Z,11.20
2022-11-12T02:22:48.051Z,10.50
2022-11-12T02:25:20.718Z,10.15
2022-11-12T02:27:51.805Z,11.65
2022-11-12T02:30:22.135Z,10.85
2022-11-12T02:32:48.769Z,9.57
2022-11-12T02:35:15.489Z,9.25
2022-11-12T02:37:42.107Z,10.65
2022-11-12T02:40:11.049Z,9.63
2022-11-12T02:42:37.655Z,9.68
2022-11-12T02:45:04.829Z,10.07
2022-11-12T02:47:33.611Z,10.15
2022-11-12T02:50:00.238Z,9.93
2022-11-12T02:52:29.020Z,8.88
2022-11-12T02:54:55.754Z,9.13
2022-11-12T02:57:22.359Z,8.93
2022-11-12T02:59:49.026Z,9.02
2022-11-12T03:02:15.766Z,8.75
2022-11-12T03:04:48.206Z,9.02
2022-11-12T03:07:18.381Z,9.43
2022-11-12T03:09:47.168Z,9.75
2022-11-12T03:12:13.755Z,9.57
2022-11-12T03:14:40.747Z,10.43
2022-11-12T03:17:07.376Z,10.63
2022-11-12T03:19:34.014Z,10.10
2022-11-12T03:22:03.176Z,10.00
2022-11-12T03:24:32.280Z,9.75
2022-11-12T03:27:01.144Z,10.00
2022-11-12T03:29:27.739Z,9.57
2022-11-12T03:31:54.382Z,9.80
2022-11-12T03:34:21.002Z,9.23
2022-11-12T03:36:49.868Z,10.63
2022-11-12T03:39:19.316Z,10.30
2022-11-12T03:41:48.436Z,9.85
2022-11-12T03:44:15.026Z,11.38
2022-11-12T03:46:44.402Z,12.70
2022-11-12T03:49:13.552Z,13.30
2022-11-12T03:51:40.167Z,11.93
2022-11-12T03:54:06.992Z,11.50
2022-11-12T03:56:33.617Z,13.20
2022-11-12T03:59:00.241Z,10.98
2022-11-12T04:01:26.912Z,11.63
2022-11-12T04:03:53.650Z,11.65
2022-11-12T04:06:38.801Z,11.48
2022-11-12T04:09:05.441Z,11.00
2022-11-12T04:11:32.081Z,12.73
2022-11-12T04:13:58.850Z,12.98
2022-11-12T04:16:44.237Z,12.15
2022-11-12T04:19:31.278Z,12.98
2022-11-12T04:22:07.866Z,12.95
2022-11-12T04:24:55.669Z,14.50
2022-11-12T04:27:42.450Z,12.75
2022-11-12T04:30:19.376Z,11.50
2022-11-12T04:32:54.718Z,12.98
2022-11-12T04:35:28.024Z,11.88
2022-11-12T04:37:55.191Z,11.88
2022-11-12T04:40:44.269Z,12.68
2022-11-12T04:43:32.212Z,15.25
2022-11-12T04:46:00.209Z,12.45
2022-11-12T04:48:29.541Z,11.75
2022-11-12T04:51:24.487Z,11.00
2022-11-12T04:53:51.117Z,11.85
2022-11-12T04:56:17.733Z,11.63
2022-11-12T04:58:44.918Z,12.57
2022-11-12T05:01:11.719Z,11.35
2022-11-12T05:03:38.365Z,11.10
2022-11-12T05:06:29.317Z,10.43
2022-11-12T05:08:58.371Z,11.07
2022-11-12T05:11:24.962Z,14.23
2022-11-12T05:13:51.568Z,11.43
2022-11-12T05:16:18.161Z,10.00
2022-11-12T05:18:44.760Z,10.35
2022-11-12T05:21:30.184Z,10.55
2022-11-12T05:23:56.789Z,10.48
2022-11-12T05:26:23.430Z,9.30
2022-11-12T05:28:50.062Z,8.98
2022-11-12T05:31:16.702Z,9.40
2022-11-12T05:33:43.321Z,9.50
2022-11-12T05:36:12.175Z,9.90
2022-11-12T05:38:41.285Z,9.30
2022-11-12T05:41:07.869Z,9.32
2022-11-12T05:43:39.704Z,8.93
2022-11-12T05:46:06.403Z,8.95
2022-11-12T05:48:33.068Z,8.80
2022-11-12T05:51:12.580Z,8.90
2022-11-12T05:53:41.051Z,9.05
2022-11-12T05:56:13.284Z,9.90
2022-11-12T05:58:40.029Z,9.02
2022-11-12T06:01:08.847Z,8.98
2022-11-12T06:03:35.609Z,8.98
2022-11-12T06:06:02.288Z,10.05
2022-11-12T06:08:29.415Z,10.55
2022-11-12T06:10:58.752Z,9.93
2022-11-12T06:13:26.146Z,9.98
2022-11-12T06:15:54.146Z,10.35
2022-11-12T06:18:21.735Z,9.90
2022-11-12T06:21:07.433Z,10.20
2022-11-12T06:23:34.095Z,9.93
2022-11-12T06:26:00.831Z,10.25
2022-11-12T06:28:28.200Z,10.13
2022-11-12T06:30:55.398Z,10.18
2022-11-12T06:33:22.066Z,10.25
2022-11-12T06:35:55.934Z,10.20
2022-11-12T06:40:49.091Z,9.88
2022-11-12T06:43:15.751Z,10.40
2022-11-12T06:45:44.565Z,11.57
2022-11-12T06:48:11.216Z,10.95
2022-11-12T06:50:40.061Z,11.48
2022-11-12T06:53:08.903Z,11.38
2022-11-12T06:55:35.637Z,11.93
2022-11-12T06:58:02.313Z,10.88
2022-11-12T07:00:28.911Z,12.02
2022-11-12T07:02:55.561Z,11.10
2022-11-12T07:05:22.162Z,12.13
2022-11-12T07:07:51.040Z,11.95
2022-11-12T07:10:17.816Z,12.32
2022-11-12T07:12:51.994Z,12.18
2022-11-12T07:15:19.879Z,12.55
2022-11-12T07:17:46.942Z,12.23
2022-11-12T07:20:13.931Z,12.38
2022-11-12T07:22:40.633Z,13.52
2022-11-12T07:25:07.649Z,12.55
2022-11-12T07:27:34.309Z,13.48
2022-11-12T07:30:01.090Z,13.38
2022-11-12T07:32:30.052Z,12.77
2022-11-12T07:34:59.162Z,13.02
2022-11-12T07:37:25.786Z,11.73
2022-11-12T07:39:52.439Z,12.65
2022-11-12T07:42:21.436Z,13.00
2022-11-12T07:44:48.063Z,13.70
2022-11-12T07:47:14.740Z,13.18
2022-11-12T07:49:41.432Z,12.57
2022-11-12T07:52:08.096Z,12.50
2022-11-12T07:54:34.738Z,12.02
2022-11-12T07:57:01.471Z,12.95
2022-11-12T07:59:28.206Z,12.82
2022-11-12T08:01:57.352Z,13.10
2022-11-12T08:04:24.129Z,12.93
2022-11-12T08:06:56.006Z,14.82
2022-11-12T08:09:22.826Z,13.82
2022-11-12T08:11:51.862Z,14.63
2022-11-12T08:14:18.655Z,13.88
2022-11-12T08:16:46.625Z,14.13
2022-11-12T08:19:13.304Z,15.70
2022-11-12T08:21:44.870Z,14.73
2022-11-12T08:24:11.630Z,14.70
2022-11-12T08:26:38.300Z,14.40
2022-11-12T08:29:08.588Z,14.90
2022-11-12T08:31:35.799Z,14.30
2022-11-12T08:34:12.215Z,14.40
2022-11-12T08:36:40.264Z,13.25
2022-11-12T08:39:07.650Z,14.07
2022-11-12T08:41:34.489Z,14.18
2022-11-12T08:44:07.120Z,15.20
2022-11-12T08:46:37.566Z,15.40
2022-11-12T08:49:04.192Z,14.20
2022-11-12T08:51:30.897Z,15.48
2022-11-12T08:53:57.542Z,14.68
2022-11-12T08:56:24.183Z,13.27
2022-11-12T08:58:50.853Z,14.40
2022-11-12T09:01:17.511Z,14.60
2022-11-12T09:03:44.272Z,14.55
2022-11-12T09:06:11.020Z,15.43
2022-11-12T09:08:40.148Z,15.68
2022-11-12T09:11:07.393Z,13.57
2022-11-12T09:13:34.805Z,15.13
2022-11-12T09:16:09.157Z,14.10
2022-11-12T09:18:36.475Z,14.57
2022-11-12T09:21:10.649Z,14.52
2022-11-12T09:23:37.834Z,15.05
2022-11-12T09:26:05.257Z,16.02
2022-11-12T09:28:32.346Z,15.30
2022-11-12T09:30:59.459Z,13.63
2022-11-12T09:33:29.858Z,13.90
2022-11-12T09:36:00.186Z,13.95
2022-11-12T09:38:29.362Z,14.18
2022-11-12T09:41:05.189Z,14.95
2022-11-12T09:43:42.285Z,14.13
2022-11-12T09:46:36.690Z,13.93
2022-11-12T09:51:55.291Z,13.35
2022-11-12T09:54:33.867Z,13.88
2022-11-12T09:57:01.191Z,13.98
2022-11-12T09:59:31.659Z,13.48
2022-11-12T10:02:16.549Z,13.23
2022-11-12T10:04:58.309Z,13.25
2022-11-12T10:07:52.699Z,13.55
2022-11-12T10:10:33.064Z,13.38
2022-11-12T10:13:17.758Z,14.45
2022-11-12T10:16:45.134Z,13.05
2022-11-12T10:19:20.624Z,13.18
2022-11-12T10:22:19.240Z,12.15
2022-11-12T10:24:46.716Z,12.88
2022-11-12T10:27:17.729Z,12.57
2022-11-12T10:30:01.064Z,12.82
2022-11-12T10:32:27.836Z,12.50
2022-11-12T10:34:56.650Z,12.75
2022-11-12T10:38:03.976Z,12.95
2022-11-12T10:40:37.944Z,13.32
2022-11-12T10:43:23.711Z,13.07
2022-11-12T10:45:53.256Z,12.93
2022-11-12T10:48:34.143Z,13.27
2022-11-12T10:51:04.119Z,12.35
2022-11-12T10:53:39.893Z,13.48
2022-11-12T10:56:29.860Z,12.57
2022-11-12T10:59:16.463Z,13.00
2022-11-12T11:01:46.082Z,12.00
2022-11-12T11:04:23.898Z,12.65
2022-11-12T11:06:59.046Z,11.65
2022-11-12T11:09:26.996Z,11.48
2022-11-12T11:11:56.516Z,11.45
2022-11-12T11:14:23.239Z,12.27
2022-11-12T11:16:56.596Z,12.10
2022-11-12T11:19:31.123Z,12.02
2022-11-12T11:22:11.193Z,10.00
2022-11-12T11:24:56.808Z,9.75
2022-11-12T11:27:29.808Z,9.88
2022-11-12T11:30:22.645Z,10.13
2022-11-12T11:32:58.163Z,9.85
2022-11-12T11:35:32.345Z,9.43
2022-11-12T11:38:35.805Z,9.30
2022-11-12T11:41:06.886Z,9.32
2022-11-12T11:43:57.014Z,9.52
2022-11-12T11:47:08.380Z,9.38
2022-11-12T11:49:47.123Z,9.40
2022-11-12T11:52:29.143Z,9.27
2022-11-12T11:55:08.352Z,9.30
2022-11-12T11:57:52.605Z,9.75
2022-11-12T12:00:21.138Z,9.60
2022-11-12T12:03:05.996Z,10.25
2022-11-12T12:05:53.153Z,9.90
2022-11-12T12:08:36.095Z,10.63
2022-11-12T12:11:35.301Z,10.63
2022-11-12T12:14:12.461Z,11.25
2022-11-12T12:17:11.727Z,10.77
2022-11-12T12:20:00.355Z,11.73
2022-11-12T12:22:41.917Z,14.00
2022-11-12T12:25:25.266Z,13.13
2022-11-12T12:28:04.174Z,13.10
2022-11-12T12:30:37.202Z,15.75
2022-11-12T12:33:39.072Z,15.27
2022-11-12T12:36:11.114Z,14.27
2022-11-12T12:39:07.671Z,15.52
2022-11-12T12:41:49.826Z,14.38
2022-11-12T12:44:16.518Z,14.52
2022-11-12T12:46:48.443Z,14.88
2022-11-12T12:49:25.746Z,15.30
2022-11-12T12:51:55.809Z,14.40
2022-11-12T12:54:40.816Z,15.20
2022-11-12T12:57:37.933Z,15.27
2022-11-12T13:00:39.738Z,14.15
2022-11-12T13:03:10.053Z,14.75
2022-11-12T13:05:40.121Z,15.80
2022-11-12T13:08:11.746Z,16.83
2022-11-12T13:10:50.671Z,19.20
2022-11-12T13:13:17.317Z,19.00
2022-11-12T13:15:56.957Z,20.23
2022-11-12T13:18:39.503Z,22.30
2022-11-12T13:21:23.969Z,21.88
2022-11-12T13:24:06.794Z,21.65
2022-11-12T13:26:57.440Z,22.15
2022-11-12T13:29:28.051Z,22.02
2022-11-12T13:32:36.313Z,21.02
2022-11-12T13:35:21.996Z,19.73
2022-11-12T13:37:56.415Z,19.63
2022-11-12T13:40:23.023Z,19.95
2022-11-12T13:42:50.295Z,21.98
2022-11-12T13:45:20.847Z,22.20
2022-11-12T13:47:50.757Z,20.73
2022-11-12T13:50:23.008Z,21.65
2022-11-12T13:52:53.266Z,21.67
2022-11-12T13:55:22.566Z,22.88
2022-11-12T13:57:51.343Z,22.63
2022-11-12T14:00:17.999Z,24.67
2022-11-12T14:02:50.067Z,24.75
2022-11-12T14:05:20.221Z,23.08
2022-11-12T14:07:55.202Z,22.80
2022-11-12T14:10:45.896Z,23.15
2022-11-12T14:13:44.647Z,23.88
2022-11-12T14:16:41.213Z,25.70
2022-11-12T14:19:35.916Z,25.08
2022-11-12T14:22:18.192Z,24.58
2022-11-12T14:24:48.192Z,25.88
2022-11-12T14:27:34.293Z,24.20
2022-11-12T14:30:20.989Z,24.63
2022-11-12T14:32:59.809Z,26.38
2022-11-12T14:35:36.067Z,24.85
2022-11-12T14:38:11.955Z,25.15
2022-11-12T14:40:59.001Z,24.48
2022-11-12T14:43:46.908Z,25.92
2022-11-12T14:46:36.451Z,26.00
2022-11-12T14:49:44.045Z,26.40
2022-11-12T14:52:41.889Z,27.17
2022-11-12T14:55:15.571Z,27.27
2022-11-12T14:57:43.364Z,23.60
2022-11-12T15:00:57.926Z,25.30
2022-11-12T15:03:31.423Z,24.63
2022-11-12T15:06:29.051Z,23.58
2022-11-12T15:08:59.499Z,22.95
2022-11-12T15:11:38.159Z,24.55
2022-11-12T15:14:04.858Z,25.42
2022-11-12T15:16:34.288Z,26.05
2022-11-12T15:19:16.369Z,30.42
2022-11-12T15:21:55.240Z,26.63
2022-11-12T15:24:43.696Z,25.42
2022-11-12T15:27:38.584Z,26.92
2022-11-12T15:30:29.936Z,26.17
2022-11-12T15:33:17.311Z,26.38
2022-11-12T15:35:46.945Z,28.08
2022-11-12T15:38:47.991Z,27.70
2022-11-12T15:41:27.091Z,28.52
2022-11-12T15:43:54.018Z,28.98
2022-11-12T15:46:23.272Z,28.90
2022-11-12T15:48:55.605Z,28.30
2022-11-12T15:51:22.747Z,29.52
2022-11-12T15:53:49.399Z,28.00
2022-11-12T15:56:22.148Z,28.45
2022-11-12T15:58:48.930Z,28.52
2022-11-12T16:01:15.616Z,27.20
2022-11-12T16:03:42.231Z,33.08
2022-11-12T16:06:11.614Z,28.48
2022-11-12T16:08:38.389Z,28.55
2022-11-12T16:11:25.099Z,28.85
2022-11-12T16:13:53.982Z,26.67
2022-11-12T16:16:20.604Z,28.77
2022-11-12T16:18:49.770Z,26.48
2022-11-12T16:21:20.625Z,28.17
2022-11-12T16:23:47.702Z,26.63
2022-11-12T16:26:19.966Z,27.15
2022-11-12T16:28:48.815Z,26.45
2022-11-12T16:31:15.564Z,26.80
2022-11-12T16:33:44.983Z,27.17
2022-11-12T16:36:15.717Z,26.05
2022-11-12T16:38:44.943Z,25.90
2022-11-12T16:41:13.204Z,25.17
2022-11-12T16:43:40.359Z,25.15
2022-11-12T16:46:14.746Z,25.77
2022-11-12T16:48:41.486Z,25.15
2022-11-12T16:51:16.052Z,23.80
2022-11-12T16:53:42.704Z,23.92
2022-11-12T16:56:18.799Z,23.27
2022-11-12T16:58:48.421Z,23.83
2022-11-12T17:01:29.840Z,23.85
2022-11-12T17:03:57.580Z,24.60
2022-11-12T17:06:36.747Z,24.13
2022-11-12T17:09:12.191Z,24.88
2022-11-12T17:11:38.913Z,25.13
2022-11-12T17:14:06.491Z,24.15
2022-11-12T17:16:33.499Z,25.23
2022-11-12T17:19:05.374Z,25.52
2022-11-12T17:21:31.995Z,24.85
2022-11-12T17:23:58.682Z,23.60
2022-11-12T17:26:27.583Z,23.40
2022-11-12T17:29:01.131Z,22.35
2022-11-12T17:31:30.476Z,22.45
2022-11-12T17:33:57.337Z,23.70
2022-11-12T17:36:27.169Z,24.75
2022-11-12T17:38:58.920Z,25.48
2022-11-12T17:41:30.765Z,26.30
2022-11-12T17:44:01.815Z,25.90
2022-11-12T17:46:29.563Z,27.10
2022-11-12T17:48:56.851Z,25.90
2022-11-12T17:51:26.242Z,26.65
2022-11-12T17:53:53.807Z,26.92
2022-11-12T17:56:22.610Z,26.77
2022-11-12T17:58:52.899Z,26.45
2022-11-12T18:01:24.848Z,26.95
2022-11-12T18:03:53.541Z,26.02
2022-11-12T18:06:21.605Z,26.83
2022-11-12T18:08:56.074Z,27.92
2022-11-12T18:11:24.728Z,29.20
2022-11-12T18:13:51.561Z,28.90
2022-11-12T18:16:31.200Z,27.92
2022-11-12T18:18:57.913Z,27.30
2022-11-12T18:21:26.289Z,29.08
2022-11-12T18:23:53.682Z,28.10
2022-11-12T18:26:22.892Z,30.52
2022-11-12T18:28:57.960Z,27.33
2022-11-12T18:31:26.952Z,28.83
2022-11-12T18:33:54.838Z,29.52
2022-11-12T18:36:26.387Z,33.28
2022-11-12T18:38:56.668Z,30.30
2022-11-12T18:41:26.573Z,30.67
2022-11-12T18:43:54.305Z,32.67
2022-11-12T18:46:21.027Z,30.55
2022-11-12T18:48:47.666Z,33.05
2022-11-12T18:51:16.559Z,33.05
2022-11-12T18:53:43.581Z,32.72
2022-11-12T18:56:15.627Z,33.10
2022-11-12T18:58:42.803Z,33.03
2022-11-12T19:01:12.765Z,31.35
2022-11-12T19:03:39.453Z,30.63
2022-11-12T19:06:07.121Z,30.58
2022-11-12T19:08:34.705Z,30.58
2022-11-12T19:11:12.036Z,32.58
2022-11-12T19:13:39.475Z,31.95
2022-11-12T19:16:16.869Z,31.70
2022-11-12T19:18:44.648Z,31.38
2022-11-12T19:21:14.357Z,31.83
2022-11-12T19:23:44.208Z,29.02
2022-11-12T19:26:16.672Z,28.23
2022-11-12T19:28:46.360Z,26.27
2022-11-12T19:31:23.104Z,23.70
2022-11-12T19:33:50.652Z,23.08
2022-11-12T19:36:20.619Z,27.30
2022-11-12T19:38:47.694Z,24.70
2022-11-12T19:41:19.654Z,22.33
2022-11-12T19:43:47.432Z,25.25
2022-11-12T19:46:14.766Z,23.65
2022-11-12T19:48:42.107Z,24.50
2022-11-12T19:51:10.250Z,24.73
2022-11-12T19:53:44.509Z,23.73
2022-11-12T19:56:13.796Z,24.00
2022-11-12T19:58:46.367Z,24.50
2022-11-12T20:01:15.954Z,23.70
2022-11-12T20:03:42.846Z,22.80
2022-11-12T20:06:17.724Z,23.08
2022-11-12T20:08:44.583Z,22.58
2022-11-12T20:11:11.847Z,22.63
2022-11-12T20:13:39.286Z,24.90
2022-11-12T20:16:11.988Z,23.35
2022-11-12T20:18:38.897Z,22.42
2022-11-12T20:21:06.362Z,21.77
2022-11-12T20:23:34.343Z,19.38
2022-11-12T20:26:09.964Z,18.70
2022-11-12T20:28:38.526Z,16.88
2022-11-12T20:31:16.910Z,16.75
2022-11-12T20:33:43.598Z,16.85
2022-11-12T20:36:15.332Z,16.85
2022-11-12T20:38:44.206Z,16.75
2022-11-12T20:41:24.273Z,16.83
2022-11-12T20:43:58.473Z,17.13
2022-11-12T20:46:26.409Z,16.55
2022-11-12T20:48:56.464Z,15.68
2022-11-12T20:51:25.957Z,17.27
2022-11-12T20:53:59.420Z,16.60
2022-11-12T20:56:28.959Z,17.40
2022-11-12T20:58:55.946Z,18.25
2022-11-12T21:01:24.784Z,17.40
2022-11-12T21:03:52.050Z,18.10
2022-11-12T21:06:22.601Z,17.98
2022-11-12T21:08:51.791Z,19.75
2022-11-12T21:11:20.685Z,18.77
2022-11-12T21:13:47.570Z,18.40
2022-11-12T21:16:16.791Z,18.52
2022-11-12T21:18:45.622Z,18.02
2022-11-12T21:21:14.425Z,18.55
2022-11-12T21:23:44.983Z,17.50
2022-11-12T21:26:14.288Z,18.02
2022-11-12T21:28:54.723Z,17.23
2022-11-12T21:31:24.183Z,17.67
2022-11-12T21:33:55.275Z,17.90
2022-11-12T21:36:22.727Z,18.80
2022-11-12T21:38:49.855Z,19.08
2022-11-12T21:41:22.037Z,18.80
2022-11-12T21:43:49.352Z,22.55
2022-11-12T21:46:22.482Z,18.08
2022-11-12T21:48:54.861Z,18.35
2022-11-12T21:51:24.684Z,18.00
2022-11-12T21:54:10.047Z,18.67
2022-11-12T21:56:37.836Z,18.10
2022-11-12T21:59:04.618Z,18.73
2022-11-12T22:01:34.121Z,17.45
2022-11-12T22:04:01.061Z,17.42
2022-11-12T22:06:30.037Z,16.75
2022-11-12T22:08:59.198Z,17.67
2022-11-12T22:11:26.328Z,17.63
2022-11-12T22:13:53.219Z,16.50
2022-11-12T22:16:22.162Z,16.08
2022-11-12T22:18:51.296Z,16.90
2022-11-12T22:21:23.695Z,16.77
2022-11-12T22:23:50.663Z,16.02
2022-11-12T22:26:24.392Z,16.80
2022-11-12T22:28:54.816Z,17.05
2022-11-12T22:31:24.320Z,16.63
2022-11-12T22:33:51.055Z,16.80
2022-11-12T22:36:22.898Z,17.25
2022-11-12T22:38:53.796Z,16.73
2022-11-12T22:41:35.298Z,16.23
2022-11-12T22:44:02.477Z,16.30
2022-11-12T22:46:33.799Z,16.98
2022-11-12T22:49:01.568Z,15.73
2022-11-12T22:51:31.767Z,16.80
2022-11-12T22:54:01.210Z,16.10
2022-11-12T22:56:28.478Z,16.52
2022-11-12T22:58:58.237Z,16.70
2022-11-12T23:01:30.773Z,15.75
2022-11-12T23:04:03.425Z,14.93
2022-11-12T23:06:30.733Z,14.85
2022-11-12T23:09:01.459Z,15.82
2022-11-12T23:11:31.634Z,14.82
2022-11-12T23:13:58.340Z,14.88
2022-11-12T23:16:29.903Z,16.58
2022-11-12T23:18:56.874Z,14.85
2022-11-12T23:21:26.690Z,15.55
2022-11-12T23:23:55.696Z,15.68
2022-11-12T23:26:24.741Z,14.23
2022-11-12T23:28:54.092Z,14.50
2022-11-12T23:31:26.576Z,13.32
2022-11-12T23:33:57.146Z,12.70
2022-11-12T23:36:25.719Z,12.98
2022-11-12T23:38:52.867Z,13.40
2022-11-12T23:41:25.876Z,13.20
2022-11-12T23:43:54.051Z,13.70
2022-11-12T23:46:21.181Z,13.63
2022-11-12T23:48:48.130Z,13.80
2022-11-12T23:51:20.695Z,13.93
2022-11-12T23:53:49.785Z,11.95
2022-11-12T23:56:18.564Z,12.35
2022-11-12T23:58:45.326Z,13.20
